createdAt,value
2022-11-05T00:00:15.324Z,96.42
2022-11-05T00:03:01.670Z,97.00
2022-11-05T00:05:47.478Z,97.59
2022-11-05T00:08:33.070Z,97.92
2022-11-05T00:11:00.867Z,98.17
2022-11-05T00:13:46.728Z,97.89
2022-11-05T00:16:31.743Z,97.72
2022-11-05T00:19:09.993Z,97.76
2022-11-05T00:21:57.443Z,97.53
2022-11-05T00:24:45.377Z,97.81
2022-11-05T00:27:13.282Z,98.09
2022-11-05T00:29:40.989Z,98.59
2022-11-05T00:32:08.651Z,98.40
2022-11-05T00:34:37.632Z,99.12
2022-11-05T00:37:05.376Z,99.16
2022-11-05T00:39:33.147Z,99.04
2022-11-05T00:42:18.264Z,99.03
2022-11-05T00:45:04.411Z,99.35
2022-11-05T00:47:51.448Z,99.63
2022-11-05T00:50:21.792Z,99.62
2022-11-05T00:52:59.607Z,99.56
2022-11-05T00:55:37.985Z,99.40
2022-11-05T00:58:07.721Z,99.74
2022-11-05T01:00:37.298Z,99.68
2022-11-05T01:03:07.639Z,100.00
2022-11-05T01:05:40.221Z,100.00
2022-11-05T01:08:08.866Z,99.50
2022-11-05T01:10:40.124Z,99.36
2022-11-05T01:13:12.754Z,99.31
2022-11-05T01:15:41.414Z,99.03
2022-11-05T01:18:09.413Z,99.04
2022-11-05T01:20:38.737Z,98.92
2022-11-05T01:23:11.921Z,98.91
2022-11-05T01:25:41.143Z,98.81
2022-11-05T01:28:09.633Z,99.06
2022-11-05T01:30:37.728Z,99.19
2022-11-05T01:33:05.546Z,99.61
2022-11-05T01:35:33.165Z,99.77
2022-11-05T01:38:02.235Z,99.91
2022-11-05T01:40:29.910Z,99.79
2022-11-05T01:42:57.454Z,99.47
2022-11-05T01:45:27.199Z,99.57
2022-11-05T01:48:07.747Z,99.13
2022-11-05T01:50:50.536Z,99.17
2022-11-05T01:53:26.626Z,99.35
2022-11-05T01:55:59.977Z,98.98
2022-11-05T01:58:32.558Z,99.28
2022-11-05T02:01:00.212Z,99.07
2022-11-05T02:03:28.210Z,98.75
2022-11-05T02:05:58.183Z,99.07
2022-11-05T02:08:43.076Z,99.15
2022-11-05T02:11:13.147Z,99.91
2022-11-05T02:13:41.237Z,100.00
2022-11-05T02:16:16.299Z,100.00
2022-11-05T02:18:56.953Z,100.00
2022-11-05T02:21:56.405Z,100.00
2022-11-05T02:24:57.006Z,100.00
2022-11-05T02:27:44.183Z,100.00
2022-11-05T02:30:30.052Z,100.00
2022-11-05T02:33:14.557Z,100.00
2022-11-05T02:36:03.169Z,100.00
2022-11-05T02:38:41.507Z,100.00
2022-11-05T02:41:19.408Z,100.00
2022-11-05T02:43:59.142Z,100.00
2022-11-05T02:46:39.089Z,100.00
2022-11-05T02:49:16.599Z,100.00
2022-11-05T02:51:52.470Z,100.00
2022-11-05T02:54:27.363Z,100.00
2022-11-05T02:56:57.775Z,100.00
2022-11-05T02:59:25.380Z,100.00
2022-11-05T03:01:55.254Z,100.00
2022-11-05T03:04:24.938Z,100.00
2022-11-05T03:07:05.773Z,100.00
2022-11-05T03:09:51.157Z,100.00
2022-11-05T03:12:32.235Z,100.00
2022-11-05T03:15:10.164Z,100.00
2022-11-05T03:17:48.691Z,100.00
2022-11-05T03:20:20.965Z,100.00
2022-11-05T03:22:53.248Z,100.00
2022-11-05T03:25:23.728Z,100.00
2022-11-05T03:27:56.771Z,100.00
2022-11-05T03:30:25.170Z,100.00
2022-11-05T03:32:59.479Z,100.00
2022-11-05T03:35:31.680Z,100.00
2022-11-05T03:38:03.435Z,100.00
2022-11-05T03:40:34.944Z,100.00
2022-11-05T03:43:07.494Z,100.00
2022-11-05T03:45:39.665Z,100.00
2022-11-05T03:48:13.553Z,100.00
2022-11-05T03:50:47.295Z,100.00
2022-11-05T03:53:18.033Z,100.00
2022-11-05T03:56:03.827Z,100.00
2022-11-05T03:58:32.167Z,100.00
2022-11-05T04:01:02.259Z,100.00
2022-11-05T04:03:36.326Z,100.00
2022-11-05T04:06:22.640Z,100.00
2022-11-05T04:09:08.245Z,100.00
2022-11-05T04:11:53.614Z,100.00
2022-11-05T04:14:21.251Z,100.00
2022-11-05T04:17:06.545Z,100.00
2022-11-05T04:19:54.484Z,100.00
2022-11-05T04:22:39.587Z,100.00
2022-11-05T04:25:07.591Z,100.00
2022-11-05T04:27:35.535Z,100.00
2022-11-05T04:30:21.549Z,100.00
2022-11-05T04:33:04.779Z,100.00
2022-11-05T04:35:36.483Z,100.00
2022-11-05T04:38:05.517Z,100.00
2022-11-05T04:40:33.195Z,100.00
2022-11-05T04:43:01.402Z,100.00
2022-11-05T04:45:31.167Z,100.00
2022-11-05T04:47:58.791Z,100.00
2022-11-05T04:50:26.540Z,100.00
2022-11-05T04:52:55.913Z,100.00
2022-11-05T04:55:23.443Z,100.00
2022-11-05T04:57:52.584Z,100.00
2022-11-05T05:00:21.752Z,100.00
2022-11-05T05:02:49.879Z,100.00
2022-11-05T05:05:17.674Z,100.00
2022-11-05T05:07:45.672Z,100.00
2022-11-05T05:10:14.663Z,100.00
2022-11-05T05:12:42.294Z,100.00
2022-11-05T05:15:09.906Z,100.00
2022-11-05T05:17:37.572Z,100.00
2022-11-05T05:20:25.472Z,100.00
2022-11-05T05:22:53.988Z,100.00
2022-11-05T05:25:23.713Z,100.00
2022-11-05T05:27:51.448Z,100.00
2022-11-05T05:30:19.383Z,100.00
2022-11-05T05:32:47.034Z,100.00
2022-11-05T05:35:14.659Z,99.97
2022-11-05T05:37:42.512Z,100.00
2022-11-05T05:40:11.154Z,100.00
2022-11-05T05:42:43.216Z,100.00
2022-11-05T05:45:12.490Z,100.00
2022-11-05T05:47:40.252Z,100.00
2022-11-05T05:50:08.149Z,100.00
2022-11-05T05:52:35.756Z,99.99
2022-11-05T05:55:03.373Z,99.82
2022-11-05T05:57:30.970Z,99.77
2022-11-05T06:00:01.758Z,99.97
2022-11-05T06:02:31.309Z,99.86
2022-11-05T06:04:59.036Z,100.00
2022-11-05T06:07:26.630Z,100.00
2022-11-05T06:09:54.341Z,100.00
2022-11-05T06:12:21.915Z,99.95
2022-11-05T06:14:49.531Z,99.66
2022-11-05T06:17:18.452Z,99.27
2022-11-05T06:19:46.129Z,99.05
2022-11-05T06:22:13.716Z,98.92
2022-11-05T06:24:41.276Z,98.80
2022-11-05T06:27:08.964Z,98.60
2022-11-05T06:29:36.504Z,98.44
2022-11-05T06:32:04.223Z,98.17
2022-11-05T06:34:33.205Z,98.02
2022-11-05T06:37:00.879Z,98.17
2022-11-05T06:39:28.532Z,98.09
2022-11-05T06:42:17.435Z,97.96
2022-11-05T06:44:43.617Z,97.61
2022-11-05T06:47:12.227Z,97.73
2022-11-05T06:49:41.137Z,97.69
2022-11-05T06:52:08.833Z,97.24
2022-11-05T06:54:36.547Z,97.09
2022-11-05T06:57:04.568Z,97.13
2022-11-05T06:59:32.119Z,97.11
2022-11-05T07:01:59.750Z,96.95
2022-11-05T07:04:27.488Z,96.92
2022-11-05T07:06:56.673Z,96.41
2022-11-05T07:09:24.677Z,96.06
2022-11-05T07:11:53.517Z,95.90
2022-11-05T07:14:21.225Z,95.09
2022-11-05T07:16:48.840Z,94.83
2022-11-05T07:19:16.562Z,95.70
2022-11-05T07:21:44.223Z,95.86
2022-11-05T07:24:14.318Z,96.42
2022-11-05T07:26:42.667Z,96.61
2022-11-05T07:29:10.293Z,96.91
2022-11-05T07:31:37.890Z,96.99
2022-11-05T07:34:05.447Z,97.21
2022-11-05T07:36:33.019Z,97.55
2022-11-05T07:39:00.827Z,97.01
2022-11-05T07:41:30.197Z,97.54
2022-11-05T07:43:57.911Z,97.15
2022-11-05T07:46:25.626Z,96.97
2022-11-05T07:48:53.182Z,96.99
2022-11-05T07:51:20.991Z,95.89
2022-11-05T07:53:49.189Z,93.21
2022-11-05T07:56:16.920Z,91.88
2022-11-05T07:58:46.738Z,91.05
2022-11-05T08:01:14.472Z,90.86
2022-11-05T08:03:42.348Z,90.62
2022-11-05T08:06:10.211Z,89.72
2022-11-05T08:08:37.803Z,89.68
2022-11-05T08:11:06.588Z,88.94
2022-11-05T08:13:34.556Z,88.92
2022-11-05T08:16:04.174Z,89.50
2022-11-05T08:18:33.129Z,89.55
2022-11-05T08:21:01.927Z,88.67
2022-11-05T08:23:31.139Z,88.69
2022-11-05T08:25:59.752Z,87.01
2022-11-05T08:28:27.607Z,85.87
2022-11-05T08:30:57.147Z,83.03
2022-11-05T08:33:27.372Z,81.25
2022-11-05T08:35:55.030Z,80.43
2022-11-05T08:38:22.620Z,77.91
2022-11-05T08:40:55.993Z,78.00
2022-11-05T08:43:26.203Z,78.59
2022-11-05T08:45:54.947Z,77.68
2022-11-05T08:48:22.914Z,78.05
2022-11-05T08:50:51.877Z,79.19
2022-11-05T08:53:19.863Z,80.47
2022-11-05T08:55:52.184Z,81.33
2022-11-05T08:58:20.628Z,80.73
2022-11-05T09:00:50.734Z,79.90
2022-11-05T09:03:19.296Z,79.95
2022-11-05T09:05:47.354Z,80.42
2022-11-05T09:08:19.418Z,80.08
2022-11-05T09:10:49.596Z,80.23
2022-11-05T09:13:19.713Z,80.91
2022-11-05T09:15:49.229Z,80.76
2022-11-05T09:18:18.164Z,80.25
2022-11-05T09:20:46.502Z,80.24
2022-11-05T09:23:16.090Z,80.24
2022-11-05T09:25:44.270Z,79.45
2022-11-05T09:28:16.915Z,78.32
2022-11-05T09:30:47.211Z,78.08
2022-11-05T09:33:15.909Z,77.49
2022-11-05T09:35:44.289Z,77.99
2022-11-05T09:38:14.344Z,77.42
2022-11-05T09:40:53.582Z,77.36
2022-11-05T09:43:31.259Z,77.63
2022-11-05T09:46:03.953Z,77.91
2022-11-05T09:48:35.958Z,76.16
2022-11-05T09:51:06.021Z,77.17
2022-11-05T09:53:39.127Z,77.73
2022-11-05T09:56:22.376Z,79.20
2022-11-05T09:58:55.544Z,79.59
2022-11-05T10:01:28.899Z,81.17
2022-11-05T10:04:02.273Z,82.17
2022-11-05T10:06:30.319Z,82.01
2022-11-05T10:09:04.110Z,81.44
2022-11-05T10:11:42.507Z,82.19
2022-11-05T10:14:19.764Z,81.72
2022-11-05T10:16:52.538Z,78.85
2022-11-05T10:19:25.010Z,76.91
2022-11-05T10:22:06.625Z,76.36
2022-11-05T10:24:35.438Z,76.51
2022-11-05T10:27:06.909Z,77.49
2022-11-05T10:29:36.185Z,75.93
2022-11-05T10:32:07.216Z,75.87
2022-11-05T10:34:39.248Z,76.77
2022-11-05T10:37:09.286Z,76.96
2022-11-05T10:39:37.534Z,76.59
2022-11-05T10:42:26.027Z,77.70
2022-11-05T10:45:02.922Z,78.36
2022-11-05T10:47:50.385Z,78.48
2022-11-05T10:50:20.854Z,79.13
2022-11-05T10:52:57.249Z,79.64
2022-11-05T10:55:28.535Z,79.10
2022-11-05T10:58:09.981Z,79.05
2022-11-05T11:00:38.819Z,75.83
2022-11-05T11:03:27.485Z,75.14
2022-11-05T11:06:00.792Z,74.22
2022-11-05T11:08:29.520Z,75.27
2022-11-05T11:11:03.013Z,74.33
2022-11-05T11:13:51.078Z,71.42
2022-11-05T11:16:22.395Z,72.36
2022-11-05T11:18:55.217Z,72.57
2022-11-05T11:21:24.155Z,72.99
2022-11-05T11:23:57.202Z,71.72
2022-11-05T11:26:27.045Z,69.83
2022-11-05T11:29:00.932Z,66.37
2022-11-05T11:31:31.150Z,67.98
2022-11-05T11:34:03.264Z,67.19
2022-11-05T11:36:37.659Z,69.45
2022-11-05T11:39:07.959Z,69.26
2022-11-05T11:41:38.828Z,67.71
2022-11-05T11:44:13.947Z,66.90
2022-11-05T11:46:42.504Z,66.54
2022-11-05T11:49:31.747Z,66.87
2022-11-05T11:52:05.301Z,64.21
2022-11-05T11:54:35.316Z,63.92
2022-11-05T11:57:21.702Z,63.73
2022-11-05T12:00:09.691Z,64.30
2022-11-05T12:02:55.988Z,65.07
2022-11-05T12:05:36.161Z,64.37
2022-11-05T12:08:18.298Z,64.65
2022-11-05T12:10:56.141Z,64.86
2022-11-05T12:13:44.256Z,65.50
2022-11-05T12:16:21.491Z,64.77
2022-11-05T12:18:59.431Z,65.00
2022-11-05T12:21:52.088Z,66.23
2022-11-05T12:24:31.258Z,65.88
2022-11-05T12:27:09.423Z,67.09
2022-11-05T12:29:49.049Z,68.38
2022-11-05T12:32:39.398Z,67.37
2022-11-05T12:35:19.607Z,68.21
2022-11-05T12:37:55.836Z,66.73
2022-11-05T12:40:47.839Z,66.89
2022-11-05T12:43:26.955Z,67.62
2022-11-05T12:46:03.699Z,67.33
2022-11-05T12:48:47.462Z,65.68
2022-11-05T12:51:31.071Z,64.38
2022-11-05T12:54:16.324Z,65.70
2022-11-05T12:56:48.784Z,67.00
2022-11-05T12:59:22.273Z,66.58
2022-11-05T13:01:54.518Z,66.48
2022-11-05T13:04:38.955Z,65.79
2022-11-05T13:07:10.619Z,65.23
2022-11-05T13:09:45.415Z,66.19
2022-11-05T13:12:15.511Z,66.36
2022-11-05T13:14:48.155Z,66.73
2022-11-05T13:17:22.702Z,66.73
2022-11-05T13:20:13.091Z,66.87
2022-11-05T13:22:48.729Z,66.90
2022-11-05T13:25:21.008Z,66.46
2022-11-05T13:27:57.428Z,66.67
2022-11-05T13:30:27.235Z,66.68
2022-11-05T13:32:59.516Z,66.57
2022-11-05T13:35:32.828Z,66.74
2022-11-05T13:38:23.766Z,67.19
2022-11-05T13:41:03.167Z,68.66
2022-11-05T13:43:58.236Z,70.44
2022-11-05T13:46:54.521Z,71.07
2022-11-05T13:49:52.390Z,71.42
2022-11-05T13:53:17.658Z,72.72
2022-11-05T13:56:06.910Z,73.53
2022-11-05T13:59:13.161Z,73.92
2022-11-05T14:01:50.574Z,76.19
2022-11-05T14:04:34.569Z,79.29
2022-11-05T14:07:12.606Z,72.12
2022-11-05T14:09:43.089Z,73.18
2022-11-05T14:12:22.201Z,76.42
2022-11-05T14:14:58.907Z,76.66
2022-11-05T14:17:32.102Z,76.99
2022-11-05T14:20:41.238Z,77.85
2022-11-05T14:23:39.042Z,79.48
2022-11-05T14:26:16.340Z,80.73
2022-11-05T14:28:49.596Z,81.84
2022-11-05T14:32:06.985Z,82.71
2022-11-05T14:34:49.299Z,84.25
2022-11-05T14:37:29.191Z,81.76
2022-11-05T14:39:58.031Z,80.51
2022-11-05T14:42:29.375Z,79.19
2022-11-05T14:45:01.460Z,78.75
2022-11-05T14:47:32.554Z,78.25
2022-11-05T14:50:08.712Z,75.85
2022-11-05T14:52:37.944Z,76.38
2022-11-05T14:55:07.619Z,76.44
2022-11-05T14:58:17.826Z,76.19
2022-11-05T15:00:50.825Z,75.85
2022-11-05T15:04:01.849Z,75.34
2022-11-05T15:06:32.552Z,75.17
2022-11-05T15:09:24.339Z,76.09
2022-11-05T15:12:10.405Z,76.59
2022-11-05T15:14:48.149Z,77.65
2022-11-05T15:17:23.813Z,78.52
2022-11-05T15:19:52.940Z,78.00
2022-11-05T15:22:40.788Z,77.79
2022-11-05T15:25:18.119Z,77.76
2022-11-05T15:27:57.027Z,77.56
2022-11-05T15:30:25.587Z,77.80
2022-11-05T15:32:54.604Z,77.53
2022-11-05T15:35:26.749Z,77.84
2022-11-05T15:38:01.709Z,78.30
2022-11-05T15:40:31.728Z,78.23
2022-11-05T15:43:09.679Z,78.55
2022-11-05T15:45:37.666Z,78.73
2022-11-05T15:48:15.334Z,77.51
2022-11-05T15:50:43.321Z,77.59
2022-11-05T15:56:11.808Z,77.73
2022-11-05T15:58:46.926Z,77.38
2022-11-05T16:01:23.316Z,76.68
2022-11-05T16:03:53.625Z,76.98
2022-11-05T16:06:22.108Z,77.22
2022-11-05T16:08:51.244Z,76.83
2022-11-05T16:11:25.987Z,77.74
2022-11-05T16:13:54.514Z,77.74
2022-11-05T16:16:34.233Z,78.19
2022-11-05T16:19:26.107Z,80.53
2022-11-05T16:21:54.686Z,81.71
2022-11-05T16:24:29.206Z,83.09
2022-11-05T16:27:03.006Z,83.25
2022-11-05T16:29:34.436Z,83.84
2022-11-05T16:32:04.957Z,84.78
2022-11-05T16:34:37.581Z,86.10
2022-11-05T16:37:07.222Z,86.44
2022-11-05T16:39:35.297Z,87.19
2022-11-05T16:42:02.978Z,87.72
2022-11-05T16:44:31.060Z,87.53
2022-11-05T16:46:59.094Z,87.26
2022-11-05T16:49:26.641Z,86.37
2022-11-05T16:51:55.547Z,87.42
2022-11-05T16:54:23.148Z,87.47
2022-11-05T16:56:50.967Z,87.30
2022-11-05T16:59:18.654Z,86.92
2022-11-05T17:01:48.296Z,87.19
2022-11-05T17:04:23.818Z,87.93
2022-11-05T17:06:51.999Z,88.54
2022-11-05T17:09:21.348Z,89.12
2022-11-05T17:11:49.238Z,89.68
2022-11-05T17:14:17.228Z,90.05
2022-11-05T17:16:44.885Z,90.58
2022-11-05T17:19:16.559Z,90.17
2022-11-05T17:21:44.611Z,90.67
2022-11-05T17:24:12.214Z,91.16
2022-11-05T17:26:41.267Z,90.85
2022-11-05T17:29:08.930Z,91.08
2022-11-05T17:31:36.796Z,91.29
2022-11-05T17:34:04.482Z,91.24
2022-11-05T17:36:34.405Z,91.07
2022-11-05T17:39:04.438Z,91.64
2022-11-05T17:41:35.114Z,91.49
2022-11-05T17:44:04.682Z,91.82
2022-11-05T17:46:32.635Z,91.67
2022-11-05T17:49:00.242Z,90.67
2022-11-05T17:51:28.028Z,91.21
2022-11-05T17:53:55.734Z,90.76
2022-11-05T17:56:33.493Z,90.86
2022-11-05T17:59:04.482Z,91.04
2022-11-05T18:01:35.549Z,91.00
2022-11-05T18:04:08.630Z,91.59
2022-11-05T18:06:38.577Z,91.96
2022-11-05T18:09:06.327Z,92.19
2022-11-05T18:11:35.269Z,92.32
2022-11-05T18:14:05.186Z,92.62
2022-11-05T18:16:33.987Z,93.26
2022-11-05T18:19:04.584Z,92.44
2022-11-05T18:21:34.711Z,92.46
2022-11-05T18:24:03.635Z,92.93
2022-11-05T18:26:31.377Z,93.12
2022-11-05T18:29:03.335Z,93.26
2022-11-05T18:31:32.489Z,93.05
2022-11-05T18:34:02.925Z,93.10
2022-11-05T18:36:33.834Z,92.72
2022-11-05T18:39:03.107Z,93.00
2022-11-05T18:41:31.474Z,92.50
2022-11-05T18:44:00.620Z,91.89
2022-11-05T18:46:56.009Z,91.75
2022-11-05T18:49:17.625Z,91.31
2022-11-05T18:51:45.206Z,91.59
2022-11-05T18:54:13.439Z,91.30
2022-11-05T18:56:45.397Z,90.98
2022-11-05T18:59:35.875Z,91.30
2022-11-05T19:02:01.384Z,91.29
2022-11-05T19:04:32.996Z,91.13
2022-11-05T19:07:04.860Z,90.95
2022-11-05T19:09:33.167Z,91.15
2022-11-05T19:12:00.792Z,90.98
2022-11-05T19:14:29.882Z,90.89
2022-11-05T19:16:58.056Z,91.10
2022-11-05T19:19:25.917Z,90.76
2022-11-05T19:21:55.250Z,90.58
2022-11-05T19:24:22.835Z,90.26
2022-11-05T19:26:50.841Z,89.88
2022-11-05T19:29:18.726Z,89.79
2022-11-05T19:31:46.849Z,88.98
2022-11-05T19:34:16.252Z,89.00
2022-11-05T19:36:44.408Z,88.82
2022-11-05T19:39:18.284Z,88.28
2022-11-05T19:41:45.952Z,88.27
2022-11-05T19:44:13.598Z,88.93
2022-11-05T19:46:41.525Z,88.97
2022-11-05T19:49:09.129Z,88.45
2022-11-05T19:51:44.272Z,88.80
2022-11-05T19:54:15.258Z,88.58
2022-11-05T19:56:42.976Z,88.89
2022-11-05T19:59:12.833Z,88.67
2022-11-05T20:01:40.831Z,88.54
2022-11-05T20:04:08.615Z,88.14
2022-11-05T20:06:39.952Z,88.44
2022-11-05T20:09:25.790Z,87.72
2022-11-05T20:11:56.295Z,88.10
2022-11-05T20:14:25.497Z,88.32
2022-11-05T20:16:53.782Z,87.93
2022-11-05T20:19:23.803Z,88.49
2022-11-05T20:21:55.484Z,88.22
2022-11-05T20:24:25.499Z,88.21
2022-11-05T20:26:56.474Z,87.70
2022-11-05T20:29:34.760Z,88.48
2022-11-05T20:32:07.025Z,88.45
2022-11-05T20:34:36.800Z,88.19
2022-11-05T20:37:05.003Z,88.77
2022-11-05T20:39:32.907Z,88.78
2022-11-05T20:42:06.868Z,89.15
2022-11-05T20:44:34.711Z,89.17
2022-11-05T20:47:02.369Z,89.05
2022-11-05T20:49:30.004Z,89.78
2022-11-05T20:51:57.670Z,89.19
2022-11-05T20:54:25.471Z,89.02
2022-11-05T20:56:53.131Z,89.76
2022-11-05T20:59:22.157Z,89.51
2022-11-05T21:04:33.109Z,89.94
2022-11-05T21:07:00.694Z,89.89
2022-11-05T21:09:28.347Z,89.98
2022-11-05T21:12:11.204Z,90.46
2022-11-05T21:14:41.773Z,90.45
2022-11-05T21:17:11.470Z,90.58
2022-11-05T21:19:39.574Z,90.96
2022-11-05T21:22:11.065Z,90.14
2022-11-05T21:24:38.602Z,90.27
2022-11-05T21:27:06.177Z,89.55
2022-11-05T21:29:33.806Z,89.51
2022-11-05T21:32:08.321Z,90.32
2022-11-05T21:34:36.065Z,90.07
2022-11-05T21:37:05.574Z,89.94
2022-11-05T21:39:34.795Z,89.01
2022-11-05T21:42:02.954Z,89.41
2022-11-05T21:44:30.866Z,89.30
2022-11-05T21:46:58.731Z,89.09
2022-11-05T21:49:27.667Z,88.85
2022-11-05T21:52:13.047Z,89.29
2022-11-05T21:54:58.328Z,89.13
2022-11-05T21:57:43.801Z,88.88
2022-11-05T22:00:14.410Z,88.24
2022-11-05T22:02:42.238Z,88.12
2022-11-05T22:05:11.562Z,87.39
2022-11-05T22:07:40.381Z,87.08
2022-11-05T22:10:15.794Z,87.27
2022-11-05T22:12:44.274Z,87.46
2022-11-05T22:15:13.379Z,87.82
2022-11-05T22:17:46.194Z,87.39
2022-11-05T22:20:16.408Z,87.29
2022-11-05T22:22:44.676Z,87.86
2022-11-05T22:25:13.283Z,87.84
2022-11-05T22:27:40.872Z,87.32
2022-11-05T22:30:09.472Z,87.60
2022-11-05T22:32:38.706Z,87.26
2022-11-05T22:35:07.723Z,87.50
2022-11-05T22:37:36.618Z,87.21
2022-11-05T22:40:04.819Z,87.23
2022-11-05T22:42:32.611Z,87.40
2022-11-05T22:45:00.280Z,87.72
2022-11-05T22:47:27.920Z,87.25
2022-11-05T22:49:55.563Z,87.56
2022-11-05T22:52:24.232Z,87.71
2022-11-05T22:54:55.393Z,88.32
2022-11-05T22:57:24.055Z,88.43
2022-11-05T22:59:51.644Z,88.62
2022-11-05T23:02:19.311Z,88.29
2022-11-05T23:04:48.806Z,88.03
2022-11-05T23:07:45.822Z,88.95
2022-11-05T23:10:32.358Z,88.76
2022-11-05T23:12:59.957Z,89.10
2022-11-05T23:15:45.431Z,89.38
2022-11-05T23:18:30.513Z,89.79
2022-11-05T23:21:20.572Z,89.96
2022-11-05T23:24:05.572Z,90.13
2022-11-05T23:26:51.398Z,90.77
2022-11-05T23:29:20.399Z,90.46
2022-11-05T23:32:05.446Z,90.26
2022-11-05T23:34:33.094Z,90.76
2022-11-05T23:37:18.545Z,91.36
2022-11-05T23:39:46.247Z,90.79
2022-11-05T23:42:32.788Z,90.56
2022-11-05T23:45:17.952Z,90.71
2022-11-05T23:48:03.431Z,91.38
2022-11-05T23:50:36.926Z,90.52
2022-11-05T23:53:07.155Z,90.75
2022-11-05T23:55:34.917Z,90.32
2022-11-05T23:58:04.073Z,90.48
